Map

Track Data

SID SEASON NUMBER BASIN SUBBASIN NAME ISO_TIME NATURE LAT LON WMO_WIND WMO_PRES WMO_AGENCY TRACK_TYPE DIST2LAND LANDFALL IFLAG USA_AGENCY USA_ATCF_ID USA_LAT USA_LON USA_RECORD USA_STATUS USA_WIND USA_PRES USA_SSHS USA_R34_NE USA_R34_SE USA_R34_SW USA_R34_NW USA_R50_NE USA_R50_SE USA_R50_SW USA_R50_NW USA_R64_NE USA_R64_SE USA_R64_SW USA_R64_NW USA_POCI USA_ROCI USA_RMW USA_EYE TOKYO_LAT TOKYO_LON TOKYO_GRADE TOKYO_WIND TOKYO_PRES TOKYO_R50_DIR TOKYO_R50_LONG TOKYO_R50_SHORT TOKYO_R30_DIR TOKYO_R30_LONG TOKYO_R30_SHORT TOKYO_LAND CMA_LAT CMA_LON CMA_CAT CMA_WIND CMA_PRES HKO_LAT HKO_LON HKO_CAT HKO_WIND HKO_PRES NEWDELHI_LAT NEWDELHI_LON NEWDELHI_GRADE NEWDELHI_WIND NEWDELHI_PRES NEWDELHI_CI NEWDELHI_DP NEWDELHI_POCI REUNION_LAT REUNION_LON REUNION_TYPE REUNION_WIND REUNION_PRES REUNION_TNUM REUNION_CI REUNION_RMW REUNION_R34_NE REUNION_R34_SE REUNION_R34_SW REUNION_R34_NW REUNION_R50_NE REUNION_R50_SE REUNION_R50_SW REUNION_R50_NW REUNION_R64_NE REUNION_R64_SE REUNION_R64_SW REUNION_R64_NW BOM_LAT BOM_LON BOM_TYPE BOM_WIND BOM_PRES BOM_TNUM BOM_CI BOM_RMW BOM_R34_NE BOM_R34_SE BOM_R34_SW BOM_R34_NW BOM_R50_NE BOM_R50_SE BOM_R50_SW BOM_R50_NW BOM_R64_NE BOM_R64_SE BOM_R64_SW BOM_R64_NW BOM_ROCI BOM_POCI BOM_EYE BOM_POS_METHOD BOM_PRES_METHOD NADI_LAT NADI_LON NADI_CAT NADI_WIND NADI_PRES WELLINGTON_LAT WELLINGTON_LON WELLINGTON_WIND WELLINGTON_PRES DS824_LAT DS824_LON DS824_STAGE DS824_WIND DS824_PRES TD9636_LAT TD9636_LON TD9636_STAGE TD9636_WIND TD9636_PRES TD9635_LAT TD9635_LON TD9635_WIND TD9635_PRES TD9635_ROCI NEUMANN_LAT NEUMANN_LON NEUMANN_CLASS NEUMANN_WIND NEUMANN_PRES MLC_LAT MLC_LON MLC_CLASS MLC_WIND MLC_PRES USA_GUST BOM_GUST BOM_GUST_PER REUNION_GUST REUNION_GUST_PER USA_SEAHGT USA_SEARAD_NE USA_SEARAD_SE USA_SEARAD_SW USA_SEARAD_NW STORM_SPEED STORM_DIR
1909070S20065 1909 17 SI MM NOT_NAMED 1909-03-11 06:00:00 NR -19.5000 65.0500 reunion main 768 735 _____O____O___ -1 -19.4000 65.2000 99 9.90000 -19.6000 64.9000 7 5 241
1909070S20065 1909 17 SI MM NOT_NAMED 1909-03-11 09:00:00 NR -19.6260 64.8062 main 735 713 _____P____P___ -1 -19.4184 65.1254 99 -19.8336 64.4869 7 5 241
1909070S20065 1909 17 SI MM NOT_NAMED 1909-03-11 12:00:00 NR -19.7516 64.5623 main 712 680 _____P____P___ -1 -19.4398 65.0461 99 -20.0633 64.0786 7 5 241
1909070S20065 1909 17 SI MM NOT_NAMED 1909-03-11 15:00:00 NR -19.8768 64.3190 main 680 658 _____P____P___ -1 -19.4672 64.9571 99 -20.2864 63.6809 7 5 241
1909070S20065 1909 17 SI MM NOT_NAMED 1909-03-11 18:00:00 NR -20.0019 64.0769 main 658 626 _____P____O___ -1 -19.5037 64.8538 99 -20.5000 63.3000 7 5 241
1909070S20065 1909 17 SI MM NOT_NAMED 1909-03-11 21:00:00 NR -20.1276 63.8361 main 626 604 _____P____P___ -1 -19.5523 64.7313 99 -20.7029 62.9409 7 5 241
1909070S20065 1909 17 SI MM NOT_NAMED 1909-03-12 00:00:00 NR -20.2578 63.5946 main 604 583 _____P____P___ -1 -19.6159 64.5847 99 -20.8997 62.6045 7 5 239
1909070S20065 1909 17 SI MM NOT_NAMED 1909-03-12 03:00:00 NR -20.3971 63.3501 main 583 552 _____P____P___ -1 -19.6975 64.4093 99 -21.0967 62.2909 7 5 238
1909070S20065 1909 17 SI MM NOT_NAMED 1909-03-12 06:00:00 NR -20.5500 63.1000 reunion main 552 532 _____O____O___ -1 -19.8000 64.2000 99 9.90000 -21.3000 62.0000 7 6 236
1909070S20065 1909 17 SI MM NOT_NAMED 1909-03-12 09:00:00 NR -20.7175 62.8390 main 522 502 _____P____P___ -1 -19.9256 63.9540 99 -21.5094 61.7240 7 6 235
1909070S20065 1909 17 SI MM NOT_NAMED 1909-03-12 12:00:00 NR -20.9000 62.5733 main 504 476 _____P____P___ -1 -20.0728 63.6770 99 -21.7272 61.4695 7 6 233
1909070S20065 1909 17 SI MM NOT_NAMED 1909-03-12 15:00:00 NR -21.0981 62.3035 main 476 450 _____P____P___ -1 -20.2398 63.3768 99 -21.9564 61.2303 7 7 231
1909070S20065 1909 17 SI MM NOT_NAMED 1909-03-12 18:00:00 NR -21.3122 62.0305 main 450 436 _____P____O___ -1 -20.4244 63.0610 99 -22.2000 61.0000 7 7 230
1909070S20065 1909 17 SI MM NOT_NAMED 1909-03-12 21:00:00 NR -21.5406 61.7365 main 426 414 _____P____P___ -1 -20.6246 62.7375 99 -22.4566 60.7356 7 7 229
1909070S20065 1909 17 SI MM NOT_NAMED 1909-03-13 00:00:00 NR -21.7831 61.4486 main 409 399 _____P____P___ -1 -20.8385 62.4142 99 -22.7277 60.4829 7 7 226
1909070S20065 1909 17 SI MM NOT_NAMED 1909-03-13 03:00:00 NR -22.0370 61.1814 main 399 390 _____P____P___ -1 -21.0642 62.0991 99 -23.0098 60.2638 7 7 222
1909070S20065 1909 17 SI MM NOT_NAMED 1909-03-13 06:00:00 NR -22.3000 60.9500 reunion main 396 384 _____O____O___ -1 -21.3000 61.8000 99 9.90000 -23.3000 60.1000 7 7 217
1909070S20065 1909 17 SI MM NOT_NAMED 1909-03-13 09:00:00 NR -22.5646 60.7543 main 397 387 _____P____P___ -1 -21.5326 61.5076 99 -23.5967 60.0009 7 6 211
1909070S20065 1909 17 SI MM NOT_NAMED 1909-03-13 12:00:00 NR -22.8388 60.5914 main 394 394 _____P____P___ -1 -21.7778 61.2231 99 -23.8997 59.9596 7 6 206
1909070S20065 1909 17 SI MM NOT_NAMED 1909-03-13 15:00:00 NR -23.1182 60.4578 main 409 402 _____P____P___ -1 -22.0335 60.9520 99 -24.2030 59.9636 7 6 201
1909070S20065 1909 17 SI MM NOT_NAMED 1909-03-13 18:00:00 NR -23.3988 60.3500 main 427 420 _____P____O___ -1 -22.2977 60.7001 99 -24.5000 60.0000 7 6 198
1909070S20065 1909 17 SI MM NOT_NAMED 1909-03-13 21:00:00 NR -23.6772 60.2653 main 446 440 _____P____P___ -1 -22.5684 60.4731 99 -24.7860 60.0575 7 4 197
1909070S20065 1909 17 SI MM NOT_NAMED 1909-03-14 00:00:00 NR -23.7946 60.2138 main 449 449 _____P____P___ -1 -22.8436 60.2768 99 -25.0626 60.1298 7 2 210
1909070S20065 1909 17 SI MM NOT_NAMED 1909-03-14 03:00:00 NR -23.8586 60.1488 main 453 444 _____P____P___ -1 -23.1215 60.1171 99 -25.3329 60.2123 7 1 252
1909070S20065 1909 17 SI MM NOT_NAMED 1909-03-14 06:00:00 NR -23.8400 60.0600 reunion main 444 423 _____O____O___ -1 -23.4000 60.0000 99 9.90000 -25.6000 60.3000 7 3 309
1909070S20065 1909 17 SI MM NOT_NAMED 1909-03-14 09:00:00 NR -23.6907 59.9195 main 423 423 _____P________ -1 -23.6907 59.9195 99 7 2 228
1909070S20065 1909 17 SI MM NOT_NAMED 1909-03-14 12:00:00 NR -23.9864 59.8814 main 452 452 _____P________ -1 -23.9864 59.8814 99 7 6 185
1909070S20065 1909 17 SI MM NOT_NAMED 1909-03-14 15:00:00 NR -24.2822 59.8813 main 481 481 _____P________ -1 -24.2822 59.8813 99 7 6 177
1909070S20065 1909 17 SI MM NOT_NAMED 1909-03-14 18:00:00 NR -24.5736 59.9149 main 510 510 _____P________ -1 -24.5736 59.9149 99 6 171
1909070S20065 1909 17 SI MM NOT_NAMED 1909-03-14 21:00:00 NR -24.8559 59.9781 main 545 545 _____P________ -1 -24.8559 59.9781 99 6 166
1909070S20065 1909 17 SI MM NOT_NAMED 1909-03-15 00:00:00 NR -25.1242 60.0662 main 569 569 _____P________ -1 -25.1242 60.0662 99 6 161
1909070S20065 1909 17 SI MM NOT_NAMED 1909-03-15 03:00:00 NR -25.3738 60.1751 main 604 604 _____P________ -1 -25.3738 60.1751 99 5 156
1909070S20065 1909 17 SI MM NOT_NAMED 1909-03-15 06:00:00 NR -25.6000 60.3000 reunion main 628 628 _____O________ -1 -25.6000 60.3000 99 9.90000 5 151
1909070S20065 1909 17 SI MM NOT_NAMED 1909-03-15 09:00:00 NR -25.7994 60.4370 main 653 653 _____P________ -1 -25.7994 60.4370 99 5 146
1909070S20065 1909 17 SI MM NOT_NAMED 1909-03-15 12:00:00 NR -25.9742 60.5841 main 682 682 _____P________ -1 -25.9742 60.5841 99 4 140
1909070S20065 1909 17 SI MM NOT_NAMED 1909-03-15 15:00:00 NR -26.1278 60.7399 main 696 696 _____P________ -1 -26.1278 60.7399 99 4 135
1909070S20065 1909 17 SI MM NOT_NAMED 1909-03-15 18:00:00 NR -26.2637 60.9030 main 725 725 _____P________ -1 -26.2637 60.9030 99 4 131
1909070S20065 1909 17 SI MM NOT_NAMED 1909-03-15 21:00:00 NR -26.3854 61.0720 main 744 744 _____P________ -1 -26.3854 61.0720 99 4 127
1909070S20065 1909 17 SI MM NOT_NAMED 1909-03-16 00:00:00 NR -26.4963 61.2454 main 759 759 _____P________ -1 -26.4963 61.2454 99 4 124
1909070S20065 1909 17 SI MM NOT_NAMED 1909-03-16 03:00:00 NR -26.6000 61.4218 main 778 778 _____P________ -1 -26.6000 61.4218 99 4 123
1909070S20065 1909 17 SI MM NOT_NAMED 1909-03-16 06:00:00 NR -26.7000 61.6000 reunion main 798 _____O________ -1 -26.7000 61.6000 99 9.90000 4 123

About IBTrACS Database

This database is a web-friendly format of International Best Track Archive for Climate Stewardship (IBTrACS), a global best track data archive curated by NOAA dating back to 1842.

Updated: 2021-10-25